sensor_id;sensor_type;location;lat;lon;timestamp;P1;durP1;ratioP1;P2;durP2;ratioP2
3696;SDS011;60662;48.810;8.872;2022-08-11T06:50:08;6.47;;;2.65;;
3696;SDS011;60662;48.810;8.872;2022-08-11T06:51:28;8.15;;;2.88;;
3696;SDS011;60662;48.810;8.872;2022-08-11T06:52:34;8.63;;;2.85;;
3696;SDS011;60662;48.810;8.872;2022-08-11T06:55:20;14.13;;;3.33;;
3696;SDS011;60662;48.810;8.872;2022-08-11T06:56:58;8.35;;;2.35;;
3696;SDS011;60662;48.810;8.872;2022-08-11T07:22:06;33.40;;;3.05;;
3696;SDS011;60662;48.810;8.872;2022-08-11T07:23:30;21.23;;;2.50;;
3696;SDS011;60662;48.810;8.872;2022-08-11T07:24:57;13.35;;;2.88;;
3696;SDS011;60662;48.810;8.872;2022-08-11T07:26:21;12.35;;;2.90;;
3696;SDS011;60662;48.810;8.872;2022-08-11T07:27:47;6.65;;;2.63;;
3696;SDS011;60662;48.810;8.872;2022-08-11T07:29:15;11.05;;;3.10;;
3696;SDS011;60662;48.810;8.872;2022-08-11T07:30:17;9.40;;;4.05;;
3696;SDS011;60662;48.810;8.872;2022-08-11T07:51:38;20.58;;;3.17;;
3696;SDS011;60662;48.810;8.872;2022-08-11T07:53:01;43.22;;;4.07;;
3696;SDS011;60662;48.810;8.872;2022-08-11T07:54:04;15.38;;;3.15;;
3696;SDS011;60662;48.810;8.872;2022-08-11T07:55:17;20.33;;;3.25;;
3696;SDS011;60662;48.810;8.872;2022-08-11T07:56:42;12.27;;;3.17;;
3696;SDS011;60662;48.810;8.872;2022-08-11T07:58:03;30.92;;;3.42;;
3696;SDS011;60662;48.810;8.872;2022-08-11T07:59:30;14.80;;;3.00;;
3696;SDS011;60662;48.810;8.872;2022-08-11T08:01:05;27.05;;;3.03;;
3696;SDS011;60662;48.810;8.872;2022-08-11T08:20:30;10.52;;;2.47;;
3696;SDS011;60662;48.810;8.872;2022-08-11T08:21:37;4.35;;;2.45;;
3696;SDS011;60662;48.810;8.872;2022-08-11T08:22:39;9.10;;;2.50;;
3696;SDS011;60662;48.810;8.872;2022-08-11T08:23:48;3.78;;;2.30;;
3696;SDS011;60662;48.810;8.872;2022-08-11T08:24:56;9.07;;;2.92;;
3696;SDS011;60662;48.810;8.872;2022-08-11T08:26:02;4.90;;;2.67;;
3696;SDS011;60662;48.810;8.872;2022-08-11T08:27:26;13.73;;;2.72;;
3696;SDS011;60662;48.810;8.872;2022-08-11T08:28:31;10.05;;;2.80;;
3696;SDS011;60662;48.810;8.872;2022-08-11T08:29:35;5.05;;;2.40;;
3696;SDS011;60662;48.810;8.872;2022-08-11T08:30:56;19.98;;;2.80;;
3696;SDS011;60662;48.810;8.872;2022-08-11T08:31:59;13.23;;;3.05;;
3696;SDS011;60662;48.810;8.872;2022-08-11T08:33:03;12.68;;;3.05;;
3696;SDS011;60662;48.810;8.872;2022-08-11T08:53:25;5.55;;;2.10;;
3696;SDS011;60662;48.810;8.872;2022-08-11T08:54:34;13.02;;;2.40;;
3696;SDS011;60662;48.810;8.872;2022-08-11T08:55:37;3.38;;;1.95;;
3696;SDS011;60662;48.810;8.872;2022-08-11T08:56:45;20.17;;;3.15;;
3696;SDS011;60662;48.810;8.872;2022-08-11T08:57:52;14.05;;;2.95;;
3696;SDS011;60662;48.810;8.872;2022-08-11T08:58:56;18.27;;;3.20;;
3696;SDS011;60662;48.810;8.872;2022-08-11T09:00:01;17.08;;;2.75;;
3696;SDS011;60662;48.810;8.872;2022-08-11T09:01:04;39.40;;;5.78;;
3696;SDS011;60662;48.810;8.872;2022-08-11T09:02:11;37.65;;;3.22;;
3696;SDS011;60662;48.810;8.872;2022-08-11T09:03:13;40.38;;;3.83;;
3696;SDS011;60662;48.810;8.872;2022-08-11T09:04:35;21.27;;;3.67;;
3696;SDS011;60662;48.810;8.872;2022-08-11T09:05:37;25.40;;;3.25;;
3696;SDS011;60662;48.810;8.872;2022-08-11T09:06:40;15.48;;;2.83;;
3696;SDS011;60662;48.810;8.872;2022-08-11T09:07:50;9.90;;;2.75;;
3696;SDS011;60662;48.810;8.872;2022-08-11T09:27:36;25.70;;;3.20;;
3696;SDS011;60662;48.810;8.872;2022-08-11T09:28:50;18.98;;;2.88;;
3696;SDS011;60662;48.810;8.872;2022-08-11T09:29:52;35.03;;;3.65;;
3696;SDS011;60662;48.810;8.872;2022-08-11T09:30:55;25.98;;;3.42;;
3696;SDS011;60662;48.810;8.872;2022-08-11T09:32:01;39.80;;;3.70;;
3696;SDS011;60662;48.810;8.872;2022-08-11T09:33:03;27.92;;;2.70;;
3696;SDS011;60662;48.810;8.872;2022-08-11T09:34:06;21.38;;;2.80;;
3696;SDS011;60662;48.810;8.872;2022-08-11T09:35:10;13.88;;;2.60;;
3696;SDS011;60662;48.810;8.872;2022-08-11T09:36:12;28.52;;;3.08;;
3696;SDS011;60662;48.810;8.872;2022-08-11T09:37:33;11.02;;;2.50;;
3696;SDS011;60662;48.810;8.872;2022-08-11T09:38:56;8.80;;;2.10;;
3696;SDS011;60662;48.810;8.872;2022-08-11T09:40:18;7.43;;;2.75;;
3696;SDS011;60662;48.810;8.872;2022-08-11T09:41:29;4.47;;;2.17;;
3696;SDS011;60662;48.810;8.872;2022-08-11T09:42:53;6.55;;;1.75;;
3696;SDS011;60662;48.810;8.872;2022-08-11T09:44:14;23.63;;;3.22;;
3696;SDS011;60662;48.810;8.872;2022-08-11T09:45:34;16.95;;;3.00;;
3696;SDS011;60662;48.810;8.872;2022-08-11T09:46:40;7.50;;;2.25;;
3696;SDS011;60662;48.810;8.872;2022-08-11T09:47:42;5.60;;;1.98;;
3696;SDS011;60662;48.810;8.872;2022-08-11T09:48:45;9.25;;;2.05;;
3696;SDS011;60662;48.810;8.872;2022-08-11T10:09:17;4.22;;;2.40;;
3696;SDS011;60662;48.810;8.872;2022-08-11T10:10:22;7.65;;;2.13;;
3696;SDS011;60662;48.810;8.872;2022-08-11T10:11:25;16.83;;;2.78;;
3696;SDS011;60662;48.810;8.872;2022-08-11T10:12:30;17.08;;;2.45;;
3696;SDS011;60662;48.810;8.872;2022-08-11T10:13:34;16.42;;;2.25;;
3696;SDS011;60662;48.810;8.872;2022-08-11T10:15:21;12.23;;;2.40;;
3696;SDS011;60662;48.810;8.872;2022-08-11T10:16:36;36.58;;;3.53;;
3696;SDS011;60662;48.810;8.872;2022-08-11T10:17:42;15.30;;;1.90;;
3696;SDS011;60662;48.810;8.872;2022-08-11T10:19:07;11.63;;;2.60;;
3696;SDS011;60662;48.810;8.872;2022-08-11T10:20:10;16.67;;;2.15;;
3696;SDS011;60662;48.810;8.872;2022-08-11T10:21:13;8.07;;;2.03;;
3696;SDS011;60662;48.810;8.872;2022-08-11T10:22:23;9.38;;;2.30;;
3696;SDS011;60662;48.810;8.872;2022-08-11T10:23:44;11.02;;;2.03;;
3696;SDS011;60662;48.810;8.872;2022-08-11T10:25:06;11.23;;;2.17;;
3696;SDS011;60662;48.810;8.872;2022-08-11T10:26:27;23.70;;;2.13;;
3696;SDS011;60662;48.810;8.872;2022-08-11T10:28:07;7.72;;;1.95;;
3696;SDS011;60662;48.810;8.872;2022-08-11T10:29:30;8.23;;;1.65;;
3696;SDS011;60662;48.810;8.872;2022-08-11T10:30:59;5.60;;;1.90;;
3696;SDS011;60662;48.810;8.872;2022-08-11T10:32:22;5.00;;;1.60;;
3696;SDS011;60662;48.810;8.872;2022-08-11T10:34:09;6.32;;;1.73;;
3696;SDS011;60662;48.810;8.872;2022-08-11T10:35:15;4.20;;;1.40;;
3696;SDS011;60662;48.810;8.872;2022-08-11T10:36:18;2.70;;;1.42;;
3696;SDS011;60662;48.810;8.872;2022-08-11T10:37:21;8.32;;;2.13;;
3696;SDS011;60662;48.810;8.872;2022-08-11T10:38:44;16.58;;;2.60;;
3696;SDS011;60662;48.810;8.872;2022-08-11T10:39:52;24.30;;;2.40;;
3696;SDS011;60662;48.810;8.872;2022-08-11T10:40:56;15.32;;;1.98;;
3696;SDS011;60662;48.810;8.872;2022-08-11T10:42:17;21.70;;;2.63;;
3696;SDS011;60662;48.810;8.872;2022-08-11T10:43:58;20.65;;;2.30;;
3696;SDS011;60662;48.810;8.872;2022-08-11T10:45:04;4.07;;;1.65;;
3696;SDS011;60662;48.810;8.872;2022-08-11T10:46:25;4.78;;;2.10;;
3696;SDS011;60662;48.810;8.872;2022-08-11T10:47:46;5.85;;;1.67;;
3696;SDS011;60662;48.810;8.872;2022-08-11T10:48:49;10.85;;;1.90;;
3696;SDS011;60662;48.810;8.872;2022-08-11T10:49:51;5.68;;;1.75;;
3696;SDS011;60662;48.810;8.872;2022-08-11T10:51:12;8.45;;;1.90;;
3696;SDS011;60662;48.810;8.872;2022-08-11T10:52:14;64.88;;;4.00;;
3696;SDS011;60662;48.810;8.872;2022-08-11T10:53:35;34.47;;;3.05;;
3696;SDS011;60662;48.810;8.872;2022-08-11T11:19:02;3.40;;;1.77;;
3696;SDS011;60662;48.810;8.872;2022-08-11T11:20:08;16.05;;;2.50;;
3696;SDS011;60662;48.810;8.872;2022-08-11T11:21:33;27.85;;;3.15;;
3696;SDS011;60662;48.810;8.872;2022-08-11T11:22:37;28.08;;;2.85;;
3696;SDS011;60662;48.810;8.872;2022-08-11T11:24:58;20.17;;;2.40;;
3696;SDS011;60662;48.810;8.872;2022-08-11T11:26:20;12.60;;;1.70;;
3696;SDS011;60662;48.810;8.872;2022-08-11T11:27:46;12.35;;;2.28;;
3696;SDS011;60662;48.810;8.872;2022-08-11T11:30:20;2.85;;;1.67;;
3696;SDS011;60662;48.810;8.872;2022-08-11T11:34:44;3.78;;;1.50;;
3696;SDS011;60662;48.810;8.872;2022-08-11T11:37:09;13.48;;;1.90;;
3696;SDS011;60662;48.810;8.872;2022-08-11T11:38:16;25.50;;;2.63;;
3696;SDS011;60662;48.810;8.872;2022-08-11T11:39:20;12.88;;;1.95;;
3696;SDS011;60662;48.810;8.872;2022-08-11T11:40:23;7.90;;;2.17;;
3696;SDS011;60662;48.810;8.872;2022-08-11T11:41:31;4.80;;;1.52;;
3696;SDS011;60662;48.810;8.872;2022-08-11T11:42:33;3.45;;;1.98;;
3696;SDS011;60662;48.810;8.872;2022-08-11T11:43:35;5.93;;;1.70;;
3696;SDS011;60662;48.810;8.872;2022-08-11T11:44:37;5.03;;;1.65;;
3696;SDS011;60662;48.810;8.872;2022-08-11T11:45:39;10.90;;;1.65;;
3696;SDS011;60662;48.810;8.872;2022-08-11T11:46:41;6.43;;;1.90;;
3696;SDS011;60662;48.810;8.872;2022-08-11T11:47:46;13.27;;;2.20;;
3696;SDS011;60662;48.810;8.872;2022-08-11T11:48:54;12.30;;;2.10;;
3696;SDS011;60662;48.810;8.872;2022-08-11T11:49:56;7.23;;;1.57;;
3696;SDS011;60662;48.810;8.872;2022-08-11T11:50:58;5.03;;;1.67;;
3696;SDS011;60662;48.810;8.872;2022-08-11T11:52:00;6.70;;;2.00;;
3696;SDS011;60662;48.810;8.872;2022-08-11T11:53:03;6.97;;;2.00;;
3696;SDS011;60662;48.810;8.872;2022-08-11T11:54:07;5.50;;;1.67;;
3696;SDS011;60662;48.810;8.872;2022-08-11T11:55:14;5.20;;;1.90;;
3696;SDS011;60662;48.810;8.872;2022-08-11T11:56:16;10.20;;;1.70;;
3696;SDS011;60662;48.810;8.872;2022-08-11T11:57:19;7.60;;;2.13;;
3696;SDS011;60662;48.810;8.872;2022-08-11T11:58:41;2.20;;;1.43;;
3696;SDS011;60662;48.810;8.872;2022-08-11T12:00:08;4.33;;;1.63;;
3696;SDS011;60662;48.810;8.872;2022-08-11T12:01:33;6.47;;;2.20;;
3696;SDS011;60662;48.810;8.872;2022-08-11T12:02:36;8.30;;;1.90;;
3696;SDS011;60662;48.810;8.872;2022-08-11T12:03:39;2.30;;;1.57;;
3696;SDS011;60662;48.810;8.872;2022-08-11T12:04:43;4.93;;;1.77;;
3696;SDS011;60662;48.810;8.872;2022-08-11T12:05:45;8.00;;;1.77;;
3696;SDS011;60662;48.810;8.872;2022-08-11T12:06:48;14.97;;;1.90;;
3696;SDS011;60662;48.810;8.872;2022-08-11T12:07:50;8.07;;;1.70;;
3696;SDS011;60662;48.810;8.872;2022-08-11T12:09:13;13.70;;;2.50;;
3696;SDS011;60662;48.810;8.872;2022-08-11T12:10:18;20.33;;;3.13;;
3696;SDS011;60662;48.810;8.872;2022-08-11T12:11:20;14.73;;;1.80;;
3696;SDS011;60662;48.810;8.872;2022-08-11T12:12:44;8.57;;;2.00;;
3696;SDS011;60662;48.810;8.872;2022-08-11T12:38:22;21.00;;;3.00;;
3696;SDS011;60662;48.810;8.872;2022-08-11T12:39:33;22.38;;;2.25;;
3696;SDS011;60662;48.810;8.872;2022-08-11T12:41:17;9.77;;;1.65;;
3696;SDS011;60662;48.810;8.872;2022-08-11T12:42:40;11.10;;;1.50;;
3696;SDS011;60662;48.810;8.872;2022-08-11T12:44:04;4.45;;;1.48;;
3696;SDS011;60662;48.810;8.872;2022-08-11T12:45:41;4.55;;;2.00;;
3696;SDS011;60662;48.810;8.872;2022-08-11T12:46:44;6.53;;;1.50;;
3696;SDS011;60662;48.810;8.872;2022-08-11T12:47:48;9.43;;;1.80;;
3696;SDS011;60662;48.810;8.872;2022-08-11T12:49:30;5.20;;;2.23;;
3696;SDS011;60662;48.810;8.872;2022-08-11T12:50:56;5.73;;;1.67;;
3696;SDS011;60662;48.810;8.872;2022-08-11T12:52:21;4.17;;;1.53;;
3696;SDS011;60662;48.810;8.872;2022-08-11T12:53:26;3.93;;;1.40;;
3696;SDS011;60662;48.810;8.872;2022-08-11T12:54:34;10.33;;;1.97;;
3696;SDS011;60662;48.810;8.872;2022-08-11T12:55:54;4.83;;;1.87;;
3696;SDS011;60662;48.810;8.872;2022-08-11T12:57:18;19.33;;;2.60;;
3696;SDS011;60662;48.810;8.872;2022-08-11T12:58:44;6.37;;;1.70;;
3696;SDS011;60662;48.810;8.872;2022-08-11T12:59:52;3.20;;;1.50;;
3696;SDS011;60662;48.810;8.872;2022-08-11T13:01:14;14.80;;;2.30;;
3696;SDS011;60662;48.810;8.872;2022-08-11T13:02:35;10.03;;;1.77;;
3696;SDS011;60662;48.810;8.872;2022-08-11T13:03:56;13.33;;;1.90;;
3696;SDS011;60662;48.810;8.872;2022-08-11T13:05:16;20.13;;;2.40;;
3696;SDS011;60662;48.810;8.872;2022-08-11T13:06:18;16.60;;;2.23;;
3696;SDS011;60662;48.810;8.872;2022-08-11T13:07:27;5.30;;;1.70;;
3696;SDS011;60662;48.810;8.872;2022-08-11T13:08:50;3.63;;;1.50;;
3696;SDS011;60662;48.810;8.872;2022-08-11T13:09:55;19.55;;;2.60;;
3696;SDS011;60662;48.810;8.872;2022-08-11T13:10:58;12.77;;;2.10;;
3696;SDS011;60662;48.810;8.872;2022-08-11T13:12:21;9.43;;;2.20;;
3696;SDS011;60662;48.810;8.872;2022-08-11T13:13:42;12.95;;;1.73;;
3696;SDS011;60662;48.810;8.872;2022-08-11T13:14:57;10.55;;;1.88;;
3696;SDS011;60662;48.810;8.872;2022-08-11T13:16:01;12.57;;;1.83;;
3696;SDS011;60662;48.810;8.872;2022-08-11T13:17:03;5.30;;;1.75;;
3696;SDS011;60662;48.810;8.872;2022-08-11T13:18:43;7.67;;;1.93;;
3696;SDS011;60662;48.810;8.872;2022-08-11T13:19:45;6.13;;;1.70;;
3696;SDS011;60662;48.810;8.872;2022-08-11T13:20:53;11.13;;;1.87;;
3696;SDS011;60662;48.810;8.872;2022-08-11T13:21:56;32.77;;;2.50;;
3696;SDS011;60662;48.810;8.872;2022-08-11T13:22:58;49.60;;;3.90;;
3696;SDS011;60662;48.810;8.872;2022-08-11T13:24:00;14.97;;;2.67;;
3696;SDS011;60662;48.810;8.872;2022-08-11T13:25:03;12.70;;;2.67;;
3696;SDS011;60662;48.810;8.872;2022-08-11T13:26:07;4.30;;;1.47;;
3696;SDS011;60662;48.810;8.872;2022-08-11T13:27:09;8.90;;;2.30;;
3696;SDS011;60662;48.810;8.872;2022-08-11T13:28:12;6.50;;;1.80;;
3696;SDS011;60662;48.810;8.872;2022-08-11T13:29:15;16.57;;;2.10;;
3696;SDS011;60662;48.810;8.872;2022-08-11T13:30:18;9.83;;;2.13;;
3696;SDS011;60662;48.810;8.872;2022-08-11T13:31:47;4.60;;;2.20;;
3696;SDS011;60662;48.810;8.872;2022-08-11T13:32:49;24.50;;;2.67;;
3696;SDS011;60662;48.810;8.872;2022-08-11T13:33:52;27.40;;;3.30;;
3696;SDS011;60662;48.810;8.872;2022-08-11T13:34:54;20.10;;;2.00;;
3696;SDS011;60662;48.810;8.872;2022-08-11T13:35:56;8.50;;;1.50;;
3696;SDS011;60662;48.810;8.872;2022-08-11T13:37:00;5.73;;;1.33;;
3696;SDS011;60662;48.810;8.872;2022-08-11T13:38:04;3.33;;;1.50;;
3696;SDS011;60662;48.810;8.872;2022-08-11T14:03:28;8.60;;;1.80;;
3696;SDS011;60662;48.810;8.872;2022-08-11T14:04:56;9.90;;;1.43;;
3696;SDS011;60662;48.810;8.872;2022-08-11T14:05:59;3.37;;;1.50;;
3696;SDS011;60662;48.810;8.872;2022-08-11T14:07:05;3.67;;;1.10;;
3696;SDS011;60662;48.810;8.872;2022-08-11T14:08:09;2.90;;;1.27;;
3696;SDS011;60662;48.810;8.872;2022-08-11T14:09:36;5.90;;;1.30;;
3696;SDS011;60662;48.810;8.872;2022-08-11T14:10:40;2.27;;;1.50;;
3696;SDS011;60662;48.810;8.872;2022-08-11T14:11:42;2.93;;;1.30;;
3696;SDS011;60662;48.810;8.872;2022-08-11T14:13:23;6.73;;;1.90;;
3696;SDS011;60662;48.810;8.872;2022-08-11T14:14:48;3.83;;;1.30;;
3696;SDS011;60662;48.810;8.872;2022-08-11T14:15:58;3.83;;;1.30;;
3696;SDS011;60662;48.810;8.872;2022-08-11T14:17:05;7.50;;;1.60;;
3696;SDS011;60662;48.810;8.872;2022-08-11T14:18:12;2.83;;;1.47;;
3696;SDS011;60662;48.810;8.872;2022-08-11T14:19:25;2.80;;;1.70;;
3696;SDS011;60662;48.810;8.872;2022-08-11T14:20:30;3.57;;;1.67;;
3696;SDS011;60662;48.810;8.872;2022-08-11T14:21:53;3.53;;;1.67;;
3696;SDS011;60662;48.810;8.872;2022-08-11T14:23:09;4.47;;;1.57;;
3696;SDS011;60662;48.810;8.872;2022-08-11T14:24:15;2.40;;;1.40;;
3696;SDS011;60662;48.810;8.872;2022-08-11T14:25:18;11.33;;;1.40;;
3696;SDS011;60662;48.810;8.872;2022-08-11T14:26:20;7.33;;;1.43;;
3696;SDS011;60662;48.810;8.872;2022-08-11T14:27:28;6.23;;;1.50;;
3696;SDS011;60662;48.810;8.872;2022-08-11T14:28:52;2.63;;;1.30;;
3696;SDS011;60662;48.810;8.872;2022-08-11T14:30:02;3.50;;;1.47;;
3696;SDS011;60662;48.810;8.872;2022-08-11T14:31:05;8.80;;;1.40;;
3696;SDS011;60662;48.810;8.872;2022-08-11T14:32:09;3.30;;;1.37;;
3696;SDS011;60662;48.810;8.872;2022-08-11T14:33:12;7.07;;;1.30;;
3696;SDS011;60662;48.810;8.872;2022-08-11T14:34:21;6.03;;;1.27;;
3696;SDS011;60662;48.810;8.872;2022-08-11T14:35:25;3.13;;;1.47;;
3696;SDS011;60662;48.810;8.872;2022-08-11T14:36:36;2.70;;;1.37;;
3696;SDS011;60662;48.810;8.872;2022-08-11T14:37:39;6.20;;;1.60;;
3696;SDS011;60662;48.810;8.872;2022-08-11T14:38:41;9.90;;;1.20;;
3696;SDS011;60662;48.810;8.872;2022-08-11T14:39:49;5.00;;;1.80;;
3696;SDS011;60662;48.810;8.872;2022-08-11T14:41:01;7.33;;;1.23;;
3696;SDS011;60662;48.810;8.872;2022-08-11T14:42:22;2.20;;;1.47;;
3696;SDS011;60662;48.810;8.872;2022-08-11T14:44:00;4.47;;;1.60;;
3696;SDS011;60662;48.810;8.872;2022-08-11T14:45:21;10.17;;;1.30;;
3696;SDS011;60662;48.810;8.872;2022-08-11T14:46:58;2.40;;;1.30;;
3696;SDS011;60662;48.810;8.872;2022-08-11T14:48:25;4.07;;;1.23;;
3696;SDS011;60662;48.810;8.872;2022-08-11T14:49:27;9.53;;;1.53;;
3696;SDS011;60662;48.810;8.872;2022-08-11T14:50:32;10.60;;;1.30;;
3696;SDS011;60662;48.810;8.872;2022-08-11T14:51:34;3.43;;;1.30;;
3696;SDS011;60662;48.810;8.872;2022-08-11T14:52:36;4.47;;;1.43;;
3696;SDS011;60662;48.810;8.872;2022-08-11T14:53:43;7.67;;;1.73;;
3696;SDS011;60662;48.810;8.872;2022-08-11T14:54:59;5.37;;;1.13;;
3696;SDS011;60662;48.810;8.872;2022-08-11T14:56:20;4.77;;;1.23;;
3696;SDS011;60662;48.810;8.872;2022-08-11T14:57:37;3.33;;;1.30;;
3696;SDS011;60662;48.810;8.872;2022-08-11T14:58:56;2.80;;;1.30;;
3696;SDS011;60662;48.810;8.872;2022-08-11T14:59:59;2.07;;;1.30;;
3696;SDS011;60662;48.810;8.872;2022-08-11T15:01:04;6.37;;;1.20;;
3696;SDS011;60662;48.810;8.872;2022-08-11T15:02:26;3.93;;;1.63;;
3696;SDS011;60662;48.810;8.872;2022-08-11T15:03:46;1.40;;;1.10;;
3696;SDS011;60662;48.810;8.872;2022-08-11T15:05:10;8.27;;;1.50;;
3696;SDS011;60662;48.810;8.872;2022-08-11T15:06:12;8.30;;;1.90;;
3696;SDS011;60662;48.810;8.872;2022-08-11T15:07:14;4.57;;;1.70;;
3696;SDS011;60662;48.810;8.872;2022-08-11T15:08:17;2.50;;;1.10;;
3696;SDS011;60662;48.810;8.872;2022-08-11T15:09:20;3.87;;;1.33;;
3696;SDS011;60662;48.810;8.872;2022-08-11T15:10:22;2.50;;;1.20;;
3696;SDS011;60662;48.810;8.872;2022-08-11T15:11:27;1.93;;;1.40;;
3696;SDS011;60662;48.810;8.872;2022-08-11T15:12:48;1.60;;;1.30;;
3696;SDS011;60662;48.810;8.872;2022-08-11T15:13:50;4.20;;;1.40;;
3696;SDS011;60662;48.810;8.872;2022-08-11T15:14:52;3.33;;;1.37;;
3696;SDS011;60662;48.810;8.872;2022-08-11T15:16:13;1.73;;;1.40;;
3696;SDS011;60662;48.810;8.872;2022-08-11T15:17:34;2.23;;;1.10;;
3696;SDS011;60662;48.810;8.872;2022-08-11T15:18:43;3.07;;;1.57;;
3696;SDS011;60662;48.810;8.872;2022-08-11T15:19:45;3.93;;;1.43;;
3696;SDS011;60662;48.810;8.872;2022-08-11T15:21:08;1.50;;;1.30;;
3696;SDS011;60662;48.810;8.872;2022-08-11T15:22:28;3.30;;;1.43;;
3696;SDS011;60662;48.810;8.872;2022-08-11T15:23:48;5.37;;;1.40;;
3696;SDS011;60662;48.810;8.872;2022-08-11T15:25:08;9.10;;;1.40;;
3696;SDS011;60662;48.810;8.872;2022-08-11T15:27:42;4.50;;;1.50;;
3696;SDS011;60662;48.810;8.872;2022-08-11T15:29:07;4.87;;;1.37;;
3696;SDS011;60662;48.810;8.872;2022-08-11T15:30:29;3.63;;;1.33;;
3696;SDS011;60662;48.810;8.872;2022-08-11T15:31:49;7.97;;;1.40;;
3696;SDS011;60662;48.810;8.872;2022-08-11T15:33:10;7.57;;;1.47;;
3696;SDS011;60662;48.810;8.872;2022-08-11T15:34:33;5.63;;;2.03;;
3696;SDS011;60662;48.810;8.872;2022-08-11T15:35:53;4.00;;;1.70;;
3696;SDS011;60662;48.810;8.872;2022-08-11T15:37:15;3.77;;;1.20;;
3696;SDS011;60662;48.810;8.872;2022-08-11T15:38:31;2.17;;;1.30;;
3696;SDS011;60662;48.810;8.872;2022-08-11T15:39:38;9.27;;;1.50;;
3696;SDS011;60662;48.810;8.872;2022-08-11T15:41:34;2.00;;;1.50;;
3696;SDS011;60662;48.810;8.872;2022-08-11T15:43:01;6.50;;;1.10;;
3696;SDS011;60662;48.810;8.872;2022-08-11T15:44:30;3.90;;;1.20;;
3696;SDS011;60662;48.810;8.872;2022-08-11T15:46:10;2.53;;;1.20;;
3696;SDS011;60662;48.810;8.872;2022-08-11T15:47:15;2.33;;;1.17;;
3696;SDS011;60662;48.810;8.872;2022-08-11T15:49:36;2.43;;;1.30;;
3696;SDS011;60662;48.810;8.872;2022-08-11T15:51:10;2.47;;;1.30;;
3696;SDS011;60662;48.810;8.872;2022-08-11T15:52:24;2.50;;;1.17;;
3696;SDS011;60662;48.810;8.872;2022-08-11T15:53:34;3.67;;;1.43;;
3696;SDS011;60662;48.810;8.872;2022-08-11T15:54:41;2.70;;;1.83;;
3696;SDS011;60662;48.810;8.872;2022-08-11T15:55:46;6.73;;;1.30;;
3696;SDS011;60662;48.810;8.872;2022-08-11T15:56:49;2.20;;;1.37;;
3696;SDS011;60662;48.810;8.872;2022-08-11T15:57:53;2.47;;;1.07;;
3696;SDS011;60662;48.810;8.872;2022-08-11T15:59:15;4.83;;;1.33;;
3696;SDS011;60662;48.810;8.872;2022-08-11T16:00:44;3.20;;;1.30;;
3696;SDS011;60662;48.810;8.872;2022-08-11T16:02:13;3.57;;;1.37;;
3696;SDS011;60662;48.810;8.872;2022-08-11T16:03:28;2.97;;;1.60;;
3696;SDS011;60662;48.810;8.872;2022-08-11T16:05:09;4.63;;;1.70;;
3696;SDS011;60662;48.810;8.872;2022-08-11T16:07:55;4.13;;;1.60;;
3696;SDS011;60662;48.810;8.872;2022-08-11T16:09:02;5.63;;;1.40;;
3696;SDS011;60662;48.810;8.872;2022-08-11T16:10:19;4.73;;;1.63;;
3696;SDS011;60662;48.810;8.872;2022-08-11T16:11:25;2.43;;;1.30;;
3696;SDS011;60662;48.810;8.872;2022-08-11T16:12:28;6.07;;;1.60;;
3696;SDS011;60662;48.810;8.872;2022-08-11T16:13:31;8.50;;;1.40;;
3696;SDS011;60662;48.810;8.872;2022-08-11T16:14:35;2.90;;;1.60;;
3696;SDS011;60662;48.810;8.872;2022-08-11T16:15:58;6.03;;;1.27;;
3696;SDS011;60662;48.810;8.872;2022-08-11T16:17:15;4.80;;;1.30;;
3696;SDS011;60662;48.810;8.872;2022-08-11T16:18:20;2.80;;;1.30;;
3696;SDS011;60662;48.810;8.872;2022-08-11T16:19:26;2.70;;;1.70;;
3696;SDS011;60662;48.810;8.872;2022-08-11T16:20:34;1.60;;;1.00;;
3696;SDS011;60662;48.810;8.872;2022-08-11T16:21:36;3.67;;;1.37;;
3696;SDS011;60662;48.810;8.872;2022-08-11T16:22:40;1.90;;;1.30;;
3696;SDS011;60662;48.810;8.872;2022-08-11T16:24:03;13.40;;;1.60;;
3696;SDS011;60662;48.810;8.872;2022-08-11T16:25:32;4.13;;;1.60;;
3696;SDS011;60662;48.810;8.872;2022-08-11T16:26:54;9.43;;;1.57;;
3696;SDS011;60662;48.810;8.872;2022-08-11T16:28:12;3.63;;;1.50;;
3696;SDS011;60662;48.810;8.872;2022-08-11T16:29:15;4.67;;;1.43;;
3696;SDS011;60662;48.810;8.872;2022-08-11T16:30:19;2.90;;;1.60;;
3696;SDS011;60662;48.810;8.872;2022-08-11T16:31:22;2.03;;;1.20;;
3696;SDS011;60662;48.810;8.872;2022-08-11T16:32:25;3.70;;;1.50;;
3696;SDS011;60662;48.810;8.872;2022-08-11T16:33:27;13.33;;;1.80;;
3696;SDS011;60662;48.810;8.872;2022-08-11T16:34:55;8.73;;;1.50;;
3696;SDS011;60662;48.810;8.872;2022-08-11T16:36:18;1.47;;;1.17;;
3696;SDS011;60662;48.810;8.872;2022-08-11T16:37:40;7.97;;;1.57;;
3696;SDS011;60662;48.810;8.872;2022-08-11T16:39:02;9.80;;;1.50;;
3696;SDS011;60662;48.810;8.872;2022-08-11T16:40:05;6.73;;;1.87;;
3696;SDS011;60662;48.810;8.872;2022-08-11T16:41:10;3.63;;;1.43;;
3696;SDS011;60662;48.810;8.872;2022-08-11T16:42:13;3.40;;;1.57;;
3696;SDS011;60662;48.810;8.872;2022-08-11T16:43:54;3.67;;;1.50;;
3696;SDS011;60662;48.810;8.872;2022-08-11T16:45:14;9.30;;;1.93;;
3696;SDS011;60662;48.810;8.872;2022-08-11T16:46:35;4.43;;;1.50;;
3696;SDS011;60662;48.810;8.872;2022-08-11T16:47:55;5.67;;;1.57;;
3696;SDS011;60662;48.810;8.872;2022-08-11T16:49:22;7.60;;;2.10;;
3696;SDS011;60662;48.810;8.872;2022-08-11T16:50:54;3.33;;;1.40;;
3696;SDS011;60662;48.810;8.872;2022-08-11T16:51:56;3.03;;;1.57;;
3696;SDS011;60662;48.810;8.872;2022-08-11T16:52:58;4.90;;;1.60;;
3696;SDS011;60662;48.810;8.872;2022-08-11T16:53:59;5.73;;;3.33;;
3696;SDS011;60662;48.810;8.872;2022-08-11T16:55:07;12.33;;;5.57;;
3696;SDS011;60662;48.810;8.872;2022-08-11T16:56:10;6.50;;;3.43;;
3696;SDS011;60662;48.810;8.872;2022-08-11T16:57:35;8.70;;;2.53;;
3696;SDS011;60662;48.810;8.872;2022-08-11T16:58:59;11.43;;;2.10;;
3696;SDS011;60662;48.810;8.872;2022-08-11T17:00:18;2.73;;;1.33;;
3696;SDS011;60662;48.810;8.872;2022-08-11T17:01:20;2.77;;;1.10;;
3696;SDS011;60662;48.810;8.872;2022-08-11T17:02:24;2.17;;;1.30;;
3696;SDS011;60662;48.810;8.872;2022-08-11T17:03:59;4.33;;;1.40;;
3696;SDS011;60662;48.810;8.872;2022-08-11T17:05:32;3.70;;;1.60;;
3696;SDS011;60662;48.810;8.872;2022-08-11T17:06:55;2.80;;;1.30;;
3696;SDS011;60662;48.810;8.872;2022-08-11T17:08:46;2.70;;;1.97;;
3696;SDS011;60662;48.810;8.872;2022-08-11T17:10:12;3.40;;;1.47;;
3696;SDS011;60662;48.810;8.872;2022-08-11T17:11:55;2.87;;;1.20;;
3696;SDS011;60662;48.810;8.872;2022-08-11T17:13:17;2.60;;;1.30;;
3696;SDS011;60662;48.810;8.872;2022-08-11T17:15:51;2.90;;;1.20;;
3696;SDS011;60662;48.810;8.872;2022-08-11T17:17:12;3.93;;;1.20;;
3696;SDS011;60662;48.810;8.872;2022-08-11T17:18:17;5.13;;;1.17;;
3696;SDS011;60662;48.810;8.872;2022-08-11T17:19:53;9.87;;;1.90;;
3696;SDS011;60662;48.810;8.872;2022-08-11T17:21:20;5.10;;;1.80;;
3696;SDS011;60662;48.810;8.872;2022-08-11T17:22:27;3.40;;;1.30;;
3696;SDS011;60662;48.810;8.872;2022-08-11T17:23:51;4.37;;;1.50;;
3696;SDS011;60662;48.810;8.872;2022-08-11T17:24:55;3.80;;;1.40;;
3696;SDS011;60662;48.810;8.872;2022-08-11T17:25:59;2.07;;;1.30;;
3696;SDS011;60662;48.810;8.872;2022-08-11T17:27:05;3.97;;;1.48;;
3696;SDS011;60662;48.810;8.872;2022-08-11T17:28:09;3.53;;;1.55;;
3696;SDS011;60662;48.810;8.872;2022-08-11T17:29:13;1.85;;;1.33;;
3696;SDS011;60662;48.810;8.872;2022-08-11T17:30:15;2.17;;;1.30;;
3696;SDS011;60662;48.810;8.872;2022-08-11T17:31:18;4.63;;;1.15;;
3696;SDS011;60662;48.810;8.872;2022-08-11T17:32:44;3.17;;;1.40;;
3696;SDS011;60662;48.810;8.872;2022-08-11T17:34:08;12.75;;;1.92;;
3696;SDS011;60662;48.810;8.872;2022-08-11T17:35:32;2.28;;;1.05;;
3696;SDS011;60662;48.810;8.872;2022-08-11T17:36:36;6.05;;;1.70;;
3696;SDS011;60662;48.810;8.872;2022-08-11T17:37:45;6.55;;;1.58;;
3696;SDS011;60662;48.810;8.872;2022-08-11T17:38:49;17.02;;;2.25;;
3696;SDS011;60662;48.810;8.872;2022-08-11T17:39:51;2.15;;;1.27;;
3696;SDS011;60662;48.810;8.872;2022-08-11T17:40:58;9.73;;;1.58;;
3696;SDS011;60662;48.810;8.872;2022-08-11T17:42:24;2.53;;;1.58;;